sensor_id;sensor_type;location;lat;lon;timestamp;pressure;altitude;pressure_sealevel;temperature;humidity
47260;BME280;32999;52.412;4.890;2023-02-15T00:27:12;102936.03;;;3.92;100.00
47260;BME280;32999;52.412;4.890;2023-02-15T00:45:02;102909.94;;;3.86;100.00
47260;BME280;32999;52.412;4.890;2023-02-15T01:02:42;102914.75;;;3.79;100.00
47260;BME280;32999;52.412;4.890;2023-02-15T01:13:47;102900.94;;;3.74;100.00
47260;BME280;32999;52.412;4.890;2023-02-15T02:49:31;102820.69;;;3.31;100.00
47260;BME280;32999;52.412;4.890;2023-02-15T03:11:47;102781.59;;;3.22;100.00
47260;BME280;32999;52.412;4.890;2023-02-15T03:22:30;102789.81;;;3.17;100.00
47260;BME280;32999;52.412;4.890;2023-02-15T03:33:57;102784.03;;;3.11;100.00
47260;BME280;32999;52.412;4.890;2023-02-15T03:39:42;102770.84;;;3.11;100.00
47260;BME280;32999;52.412;4.890;2023-02-15T03:44:58;102768.38;;;3.07;100.00
47260;BME280;32999;52.412;4.890;2023-02-15T03:50:17;102758.81;;;3.05;100.00
47260;BME280;32999;52.412;4.890;2023-02-15T03:55:41;102737.59;;;2.92;100.00
47260;BME280;32999;52.412;4.890;2023-02-15T04:00:51;102742.03;;;3.06;100.00
47260;BME280;32999;52.412;4.890;2023-02-15T04:06:23;102726.47;;;3.01;100.00
47260;BME280;32999;52.412;4.890;2023-02-15T04:11:26;102742.94;;;3.21;100.00
47260;BME280;32999;52.412;4.890;2023-02-15T04:16:29;102737.34;;;3.25;100.00
47260;BME280;32999;52.412;4.890;2023-02-15T04:28:26;102728.22;;;3.17;100.00
47260;BME280;32999;52.412;4.890;2023-02-15T04:34:15;102714.31;;;3.13;100.00
47260;BME280;32999;52.412;4.890;2023-02-15T04:39:43;102669.38;;;2.85;100.00
47260;BME280;32999;52.412;4.890;2023-02-15T04:45:23;102711.41;;;3.18;100.00
47260;BME280;32999;52.412;4.890;2023-02-15T04:51:10;102651.66;;;2.87;100.00
47260;BME280;32999;52.412;4.890;2023-02-15T05:07:45;102720.66;;;3.25;100.00
47260;BME280;32999;52.412;4.890;2023-02-15T05:13:56;102701.41;;;3.23;100.00
47260;BME280;32999;52.412;4.890;2023-02-15T05:36:51;102689.25;;;3.20;100.00
47260;BME280;32999;52.412;4.890;2023-02-15T05:42:54;102685.66;;;3.21;100.00
47260;BME280;32999;52.412;4.890;2023-02-15T06:06:37;102681.69;;;3.28;100.00
47260;BME280;32999;52.412;4.890;2023-02-15T06:24:23;102669.81;;;3.21;100.00
47260;BME280;32999;52.412;4.890;2023-02-15T06:35:19;102677.34;;;3.41;100.00
47260;BME280;32999;52.412;4.890;2023-02-15T06:41:06;102673.28;;;3.64;100.00
47260;BME280;32999;52.412;4.890;2023-02-15T06:52:18;102665.97;;;3.82;100.00
47260;BME280;32999;52.412;4.890;2023-02-15T07:03:15;102674.59;;;3.98;100.00
47260;BME280;32999;52.412;4.890;2023-02-15T07:08:26;102674.50;;;4.00;100.00
47260;BME280;32999;52.412;4.890;2023-02-15T07:14:21;102666.47;;;4.01;100.00
47260;BME280;32999;52.412;4.890;2023-02-15T08:38:26;102605.09;;;6.57;100.00
47260;BME280;32999;52.412;4.890;2023-02-15T08:43:46;102613.03;;;7.03;100.00
47260;BME280;32999;52.412;4.890;2023-02-15T08:55:21;102601.84;;;8.08;100.00
47260;BME280;32999;52.412;4.890;2023-02-15T09:06:35;102603.50;;;9.34;100.00
47260;BME280;32999;52.412;4.890;2023-02-15T09:11:40;102587.28;;;9.66;100.00
47260;BME280;32999;52.412;4.890;2023-02-15T09:16:43;102573.28;;;10.02;100.00
47260;BME280;32999;52.412;4.890;2023-02-15T09:21:46;102558.22;;;10.40;100.00
47260;BME280;32999;52.412;4.890;2023-02-15T09:26:50;102594.53;;;10.99;100.00
47260;BME280;32999;52.412;4.890;2023-02-15T09:31:51;102591.97;;;11.07;100.00
47260;BME280;32999;52.412;4.890;2023-02-15T09:36:53;102590.88;;;11.00;100.00
47260;BME280;32999;52.412;4.890;2023-02-15T09:42:22;102582.00;;;11.54;100.00
47260;BME280;32999;52.412;4.890;2023-02-15T09:47:46;102489.38;;;11.97;100.00
47260;BME280;32999;52.412;4.890;2023-02-15T09:53:01;102565.72;;;13.14;100.00
47260;BME280;32999;52.412;4.890;2023-02-15T09:58:19;102560.94;;;14.00;100.00
47260;BME280;32999;52.412;4.890;2023-02-15T10:03:38;102559.09;;;14.01;100.00
47260;BME280;32999;52.412;4.890;2023-02-15T10:08:54;102529.19;;;14.28;100.00
47260;BME280;32999;52.412;4.890;2023-02-15T10:14:07;102577.41;;;14.78;100.00
47260;BME280;32999;52.412;4.890;2023-02-15T10:19:18;102576.34;;;15.74;100.00
47260;BME280;32999;52.412;4.890;2023-02-15T10:24:35;102486.69;;;15.49;100.00
47260;BME280;32999;52.412;4.890;2023-02-15T10:29:45;102463.75;;;14.99;100.00
47260;BME280;32999;52.412;4.890;2023-02-15T10:34:53;102569.41;;;16.25;100.00
47260;BME280;32999;52.412;4.890;2023-02-15T10:40:05;102464.09;;;15.81;100.00
47260;BME280;32999;52.412;4.890;2023-02-15T10:45:23;102564.88;;;15.80;100.00
47260;BME280;32999;52.412;4.890;2023-02-15T10:50:41;102438.72;;;14.51;100.00
47260;BME280;32999;52.412;4.890;2023-02-15T10:55:51;102501.25;;;14.53;100.00
47260;BME280;32999;52.412;4.890;2023-02-15T11:01:00;102541.53;;;14.86;100.00
47260;BME280;32999;52.412;4.890;2023-02-15T11:06:06;102458.41;;;13.30;100.00
47260;BME280;32999;52.412;4.890;2023-02-15T11:11:13;102533.66;;;13.62;100.00
47260;BME280;32999;52.412;4.890;2023-02-15T11:16:21;102523.03;;;13.28;100.00
47260;BME280;32999;52.412;4.890;2023-02-15T11:21:26;102508.06;;;12.92;100.00
47260;BME280;32999;52.412;4.890;2023-02-15T11:26:33;102487.97;;;12.96;100.00
47260;BME280;32999;52.412;4.890;2023-02-15T11:31:42;102399.00;;;12.33;100.00
47260;BME280;32999;52.412;4.890;2023-02-15T11:36:46;102481.25;;;13.34;100.00
47260;BME280;32999;52.412;4.890;2023-02-15T11:41:53;102492.16;;;12.99;100.00
47260;BME280;32999;52.412;4.890;2023-02-15T11:46:57;102488.13;;;12.86;100.00
47260;BME280;32999;52.412;4.890;2023-02-15T11:52:00;102472.06;;;13.03;100.00
47260;BME280;32999;52.412;4.890;2023-02-15T11:57:05;102481.91;;;13.28;100.00
47260;BME280;32999;52.412;4.890;2023-02-15T12:02:16;102479.22;;;13.28;100.00
47260;BME280;32999;52.412;4.890;2023-02-15T12:07:35;102396.50;;;12.73;100.00
47260;BME280;32999;52.412;4.890;2023-02-15T12:12:39;102449.44;;;13.05;100.00
47260;BME280;32999;52.412;4.890;2023-02-15T12:17:52;102447.09;;;13.10;100.00
47260;BME280;32999;52.412;4.890;2023-02-15T12:22:59;102437.59;;;13.24;100.00
47260;BME280;32999;52.412;4.890;2023-02-15T12:28:04;102431.72;;;13.37;100.00
47260;BME280;32999;52.412;4.890;2023-02-15T12:33:25;102372.63;;;13.37;100.00
47260;BME280;32999;52.412;4.890;2023-02-15T12:38:29;102343.44;;;13.25;100.00
47260;BME280;32999;52.412;4.890;2023-02-15T12:43:33;102445.03;;;13.71;100.00
47260;BME280;32999;52.412;4.890;2023-02-15T12:48:37;102448.38;;;13.97;100.00
47260;BME280;32999;52.412;4.890;2023-02-15T12:53:39;102440.44;;;14.12;100.00
47260;BME280;32999;52.412;4.890;2023-02-15T12:58:41;102430.91;;;14.01;100.00
47260;BME280;32999;52.412;4.890;2023-02-15T13:03:55;102420.31;;;14.00;100.00
47260;BME280;32999;52.412;4.890;2023-02-15T13:09:06;102428.88;;;13.95;100.00
47260;BME280;32999;52.412;4.890;2023-02-15T13:14:17;102413.44;;;13.97;100.00
47260;BME280;32999;52.412;4.890;2023-02-15T13:19:26;102438.78;;;14.03;100.00
47260;BME280;32999;52.412;4.890;2023-02-15T13:24:33;102424.00;;;13.90;100.00
47260;BME280;32999;52.412;4.890;2023-02-15T13:29:37;102296.75;;;12.86;100.00
47260;BME280;32999;52.412;4.890;2023-02-15T13:34:41;102412.13;;;13.52;100.00
47260;BME280;32999;52.412;4.890;2023-02-15T13:39:47;102342.78;;;13.32;100.00
47260;BME280;32999;52.412;4.890;2023-02-15T13:45:02;102379.53;;;13.47;100.00
47260;BME280;32999;52.412;4.890;2023-02-15T13:50:18;102417.16;;;13.80;100.00
47260;BME280;32999;52.412;4.890;2023-02-15T13:55:34;102312.22;;;13.16;100.00
47260;BME280;32999;52.412;4.890;2023-02-15T14:00:45;102267.41;;;12.76;100.00
47260;BME280;32999;52.412;4.890;2023-02-15T14:05:57;102313.06;;;13.09;100.00
47260;BME280;32999;52.412;4.890;2023-02-15T14:11:04;102385.25;;;13.60;100.00
47260;BME280;32999;52.412;4.890;2023-02-15T14:16:10;102373.81;;;13.42;100.00
47260;BME280;32999;52.412;4.890;2023-02-15T14:21:17;102377.50;;;13.41;100.00
47260;BME280;32999;52.412;4.890;2023-02-15T14:26:21;102369.13;;;13.52;100.00
47260;BME280;32999;52.412;4.890;2023-02-15T14:31:29;102378.84;;;13.37;100.00
47260;BME280;32999;52.412;4.890;2023-02-15T14:36:33;102381.06;;;13.50;100.00
47260;BME280;32999;52.412;4.890;2023-02-15T14:41:38;102385.09;;;13.54;100.00
47260;BME280;32999;52.412;4.890;2023-02-15T14:46:48;102378.19;;;13.43;100.00
47260;BME280;32999;52.412;4.890;2023-02-15T14:51:59;102356.13;;;12.99;100.00
47260;BME280;32999;52.412;4.890;2023-02-15T14:57:22;102373.47;;;13.21;100.00
47260;BME280;32999;52.412;4.890;2023-02-15T15:02:26;102330.50;;;13.05;100.00
47260;BME280;32999;52.412;4.890;2023-02-15T15:07:41;102372.09;;;13.09;100.00
47260;BME280;32999;52.412;4.890;2023-02-15T15:12:44;102291.84;;;12.57;100.00
47260;BME280;32999;52.412;4.890;2023-02-15T15:18:02;102372.44;;;13.06;100.00
47260;BME280;32999;52.412;4.890;2023-02-15T15:29:00;102353.19;;;12.60;100.00
47260;BME280;32999;52.412;4.890;2023-02-15T15:34:26;102337.75;;;12.54;100.00
47260;BME280;32999;52.412;4.890;2023-02-15T15:45:25;102332.72;;;12.51;100.00
47260;BME280;32999;52.412;4.890;2023-02-15T15:50:31;102325.94;;;12.39;100.00
47260;BME280;32999;52.412;4.890;2023-02-15T15:55:34;102333.72;;;12.50;100.00
47260;BME280;32999;52.412;4.890;2023-02-15T16:00:41;102330.72;;;12.53;100.00
47260;BME280;32999;52.412;4.890;2023-02-15T16:05:44;102335.81;;;12.30;100.00
47260;BME280;32999;52.412;4.890;2023-02-15T16:10:46;102310.75;;;12.05;100.00
47260;BME280;32999;52.412;4.890;2023-02-15T16:15:53;102275.53;;;11.74;100.00
47260;BME280;32999;52.412;4.890;2023-02-15T16:20:57;102282.91;;;11.72;100.00
47260;BME280;32999;52.412;4.890;2023-02-15T16:26:06;102315.84;;;11.90;100.00
47260;BME280;32999;52.412;4.890;2023-02-15T16:31:37;102235.53;;;11.21;100.00
47260;BME280;32999;52.412;4.890;2023-02-15T16:36:38;102320.84;;;11.59;100.00
47260;BME280;32999;52.412;4.890;2023-02-15T16:41:40;102239.72;;;10.98;100.00
47260;BME280;32999;52.412;4.890;2023-02-15T16:46:49;102322.69;;;11.41;100.00
47260;BME280;32999;52.412;4.890;2023-02-15T16:51:56;102227.44;;;10.69;100.00
47260;BME280;32999;52.412;4.890;2023-02-15T16:56:58;102311.41;;;11.30;100.00
47260;BME280;32999;52.412;4.890;2023-02-15T17:02:04;102320.22;;;11.04;100.00
47260;BME280;32999;52.412;4.890;2023-02-15T17:07:15;102288.03;;;10.78;100.00
47260;BME280;32999;52.412;4.890;2023-02-15T17:12:43;102350.03;;;11.09;100.00
47260;BME280;32999;52.412;4.890;2023-02-15T17:17:47;102355.81;;;11.05;100.00
47260;BME280;32999;52.412;4.890;2023-02-15T17:22:49;102318.13;;;10.63;100.00
47260;BME280;32999;52.412;4.890;2023-02-15T17:27:52;102352.16;;;10.88;100.00
47260;BME280;32999;52.412;4.890;2023-02-15T17:32:57;102288.44;;;10.38;100.00
47260;BME280;32999;52.412;4.890;2023-02-15T17:38:05;102299.88;;;10.31;100.00
47260;BME280;32999;52.412;4.890;2023-02-15T17:43:07;102267.34;;;10.08;100.00
47260;BME280;32999;52.412;4.890;2023-02-15T17:48:20;102314.53;;;10.17;100.00
47260;BME280;32999;52.412;4.890;2023-02-15T17:53:23;102284.31;;;9.89;100.00
47260;BME280;32999;52.412;4.890;2023-02-15T17:58:25;102322.44;;;10.09;100.00
47260;BME280;32999;52.412;4.890;2023-02-15T18:03:38;102370.13;;;10.41;100.00
47260;BME280;32999;52.412;4.890;2023-02-15T18:08:58;102364.50;;;10.44;100.00
47260;BME280;32999;52.412;4.890;2023-02-15T18:14:17;102354.13;;;9.94;100.00
47260;BME280;32999;52.412;4.890;2023-02-15T18:19:22;102329.50;;;10.00;100.00
47260;BME280;32999;52.412;4.890;2023-02-15T18:24:25;102350.16;;;9.98;100.00
47260;BME280;32999;52.412;4.890;2023-02-15T18:29:27;102358.13;;;10.27;100.00
47260;BME280;32999;52.412;4.890;2023-02-15T18:34:33;102367.41;;;10.23;100.00
47260;BME280;32999;52.412;4.890;2023-02-15T18:39:38;102288.81;;;9.79;100.00
47260;BME280;32999;52.412;4.890;2023-02-15T18:44:43;102375.81;;;10.38;100.00
47260;BME280;32999;52.412;4.890;2023-02-15T18:49:47;102360.75;;;10.37;100.00
47260;BME280;32999;52.412;4.890;2023-02-15T18:54:52;102355.41;;;10.37;100.00
47260;BME280;32999;52.412;4.890;2023-02-15T18:59:54;102360.22;;;10.33;100.00
47260;BME280;32999;52.412;4.890;2023-02-15T19:04:57;102356.41;;;10.36;100.00
47260;BME280;32999;52.412;4.890;2023-02-15T19:10:00;102385.38;;;10.31;100.00
47260;BME280;32999;52.412;4.890;2023-02-15T19:15:02;102297.88;;;9.96;100.00
47260;BME280;32999;52.412;4.890;2023-02-15T19:20:06;102358.66;;;10.31;100.00
47260;BME280;32999;52.412;4.890;2023-02-15T19:25:13;102343.34;;;10.23;100.00
47260;BME280;32999;52.412;4.890;2023-02-15T19:30:19;102336.88;;;10.26;100.00
47260;BME280;32999;52.412;4.890;2023-02-15T19:35:25;102250.69;;;9.49;100.00
47260;BME280;32999;52.412;4.890;2023-02-15T19:40:30;102346.34;;;10.10;100.00
47260;BME280;32999;52.412;4.890;2023-02-15T19:45:32;102317.72;;;9.93;100.00
47260;BME280;32999;52.412;4.890;2023-02-15T19:50:35;102338.28;;;9.83;100.00
47260;BME280;32999;52.412;4.890;2023-02-15T19:55:39;102260.16;;;9.25;100.00
47260;BME280;32999;52.412;4.890;2023-02-15T20:00:40;102310.25;;;9.40;100.00
47260;BME280;32999;52.412;4.890;2023-02-15T20:05:44;102327.53;;;9.55;100.00
47260;BME280;32999;52.412;4.890;2023-02-15T20:10:46;102322.03;;;9.57;100.00
47260;BME280;32999;52.412;4.890;2023-02-15T20:15:49;102325.56;;;9.48;100.00
47260;BME280;32999;52.412;4.890;2023-02-15T20:20:53;102326.81;;;9.44;100.00
47260;BME280;32999;52.412;4.890;2023-02-15T20:25:57;102274.09;;;8.80;100.00
47260;BME280;32999;52.412;4.890;2023-02-15T20:30:59;102325.16;;;9.24;100.00
47260;BME280;32999;52.412;4.890;2023-02-15T20:36:03;102319.00;;;9.33;100.00
47260;BME280;32999;52.412;4.890;2023-02-15T20:41:11;102318.72;;;9.26;100.00
47260;BME280;32999;52.412;4.890;2023-02-15T20:46:31;102325.31;;;9.12;100.00
47260;BME280;32999;52.412;4.890;2023-02-15T20:51:34;102194.75;;;8.14;100.00
47260;BME280;32999;52.412;4.890;2023-02-15T20:56:36;102303.81;;;8.95;100.00
47260;BME280;32999;52.412;4.890;2023-02-15T21:01:37;102325.47;;;9.11;100.00
47260;BME280;32999;52.412;4.890;2023-02-15T21:06:40;102257.38;;;8.59;100.00
47260;BME280;32999;52.412;4.890;2023-02-15T21:11:43;102338.34;;;8.96;100.00
47260;BME280;32999;52.412;4.890;2023-02-15T21:16:45;102333.59;;;8.90;100.00
47260;BME280;32999;52.412;4.890;2023-02-15T21:21:51;102325.03;;;8.96;100.00
47260;BME280;32999;52.412;4.890;2023-02-15T21:26:54;102242.03;;;8.32;100.00
47260;BME280;32999;52.412;4.890;2023-02-15T21:31:56;102327.13;;;8.93;100.00
47260;BME280;32999;52.412;4.890;2023-02-15T21:37:01;102323.78;;;8.91;100.00
47260;BME280;32999;52.412;4.890;2023-02-15T21:42:08;102333.88;;;8.87;100.00
47260;BME280;32999;52.412;4.890;2023-02-15T21:47:29;102330.63;;;8.83;100.00
47260;BME280;32999;52.412;4.890;2023-02-15T21:52:50;102240.88;;;8.25;100.00
47260;BME280;32999;52.412;4.890;2023-02-15T21:57:52;102254.72;;;8.18;100.00
47260;BME280;32999;52.412;4.890;2023-02-15T22:02:57;102340.28;;;8.65;100.00
47260;BME280;32999;52.412;4.890;2023-02-15T22:08:01;102251.53;;;8.15;100.00
47260;BME280;32999;52.412;4.890;2023-02-15T22:13:03;102326.66;;;8.59;100.00
47260;BME280;32999;52.412;4.890;2023-02-15T22:18:05;102335.50;;;8.59;100.00
47260;BME280;32999;52.412;4.890;2023-02-15T22:23:08;102335.50;;;8.59;100.00
47260;BME280;32999;52.412;4.890;2023-02-15T22:28:12;102225.41;;;7.99;100.00
47260;BME280;32999;52.412;4.890;2023-02-15T22:33:21;102326.81;;;8.57;100.00
47260;BME280;32999;52.412;4.890;2023-02-15T22:38:25;102325.66;;;8.50;100.00
47260;BME280;32999;52.412;4.890;2023-02-15T22:43:34;102330.44;;;8.56;100.00
47260;BME280;32999;52.412;4.890;2023-02-15T22:48:37;102334.09;;;8.55;100.00
47260;BME280;32999;52.412;4.890;2023-02-15T22:53:40;102332.09;;;8.47;100.00
47260;BME280;32999;52.412;4.890;2023-02-15T22:58:42;102326.19;;;8.44;100.00
47260;BME280;32999;52.412;4.890;2023-02-15T23:03:47;102328.72;;;8.36;100.00
47260;BME280;32999;52.412;4.890;2023-02-15T23:08:50;102325.47;;;8.42;100.00
47260;BME280;32999;52.412;4.890;2023-02-15T23:13:52;102330.81;;;8.42;100.00
47260;BME280;32999;52.412;4.890;2023-02-15T23:18:54;102329.69;;;8.35;100.00
47260;BME280;32999;52.412;4.890;2023-02-15T23:24:01;102298.88;;;8.21;100.00
47260;BME280;32999;52.412;4.890;2023-02-15T23:29:15;102347.16;;;8.28;100.00
47260;BME280;32999;52.412;4.890;2023-02-15T23:34:27;102315.13;;;8.18;100.00
47260;BME280;32999;52.412;4.890;2023-02-15T23:40:01;102315.38;;;8.05;100.00
47260;BME280;32999;52.412;4.890;2023-02-15T23:45:25;102315.13;;;8.18;100.00
47260;BME280;32999;52.412;4.890;2023-02-15T23:50:53;102291.94;;;7.99;100.00
47260;BME280;32999;52.412;4.890;2023-02-15T23:56:31;102322.13;;;8.09;100.00
